Hermanville, Mississippi
Current Conditions -  °F | °C
As of 3:35 AM on Monday 24 Nov 2014 (Local Time) from KVKS Reporting Station
Overcast Overcast  
Wind Chill: 63°   Ceiling: 7000
Heat Index: 63°   Visibility: 10mi
Dew Point: 55°   Wind: 6mph
Humidity: 77%   Direction: 240°WSW
Pressure: 29.71"   Gusts: NA
Location:  31.96°N, 90.84°W
Report Text: KVKS 240935Z AUTO 24005KT 10SM OVC070 17/13 A2971 RMK A01
Loading
Personal Weather Stations






























Interactive Weather Map New forecast layout! Learn more

10-Day Weather Forecast

Advertisements
Track Severe Weather on mobile